Ty Ty, Georgia
Current Conditions -  °F | °C
As of 2:55 AM on Monday 24 Nov 2014 (Local Time) from KTMA Reporting Station
Overcast Overcast  
Wind Chill: 65°   Ceiling: 400
Heat Index: 65°   Visibility: 10mi
Dew Point: 65°   Wind: 5mph
Humidity: 99%   Direction: 200°SSW
Pressure: 29.82"   Gusts: NA
Location:  31.47°N, 83.65°W
Report Text: KTMA 240755Z AUTO 20004KT 10SM OVC004 18/18 A2982 RMK AO2 T01830182
Loading
Personal Weather Stations






























Interactive Weather Map New forecast layout! Learn more

10-Day Weather Forecast

Advertisements
Track Severe Weather on mobile